createdAt,value
2018-04-09T00:02:02.447Z,97012.06
2018-04-09T00:04:30.015Z,97010.41
2018-04-09T00:06:57.568Z,97001.56
2018-04-09T00:09:25.119Z,97002.95
2018-04-09T00:11:52.699Z,97003.71
2018-04-09T00:14:20.208Z,96998.77
2018-04-09T00:16:47.827Z,96995.91
2018-04-09T00:19:15.424Z,96998.99
2018-04-09T00:21:42.982Z,96992.38
2018-04-09T00:24:10.478Z,96988.47
2018-04-09T00:26:38.085Z,96978.99
2018-04-09T00:29:05.668Z,96975.37
2018-04-09T00:31:33.306Z,96969.61
2018-04-09T00:34:00.890Z,96970.94
2018-04-09T00:36:28.421Z,96966.38
2018-04-09T00:38:56.079Z,96968.80
2018-04-09T00:41:23.778Z,96960.41
2018-04-09T00:43:51.388Z,96969.28
2018-04-09T00:46:18.924Z,96966.31
2018-04-09T00:48:46.433Z,96965.75
2018-04-09T00:51:14.162Z,96967.75
2018-04-09T00:53:53.589Z,96973.58
2018-04-09T00:56:21.114Z,96975.50
2018-04-09T00:58:48.670Z,96978.41
2018-04-09T01:01:16.236Z,96967.47
2018-04-09T01:03:43.865Z,96963.59
2018-04-09T01:06:11.439Z,96964.52
2018-04-09T01:08:38.944Z,96961.28
2018-04-09T01:11:06.463Z,96956.19
2018-04-09T01:13:33.983Z,96962.31
2018-04-09T01:16:01.488Z,96959.85
2018-04-09T01:18:28.994Z,96956.94
2018-04-09T01:20:56.507Z,96964.73
2018-04-09T01:23:24.084Z,96954.75
2018-04-09T01:25:51.705Z,96958.91
2018-04-09T01:28:19.214Z,96960.23
2018-04-09T01:30:46.743Z,96953.52
2018-04-09T01:33:14.325Z,96957.97
2018-04-09T01:35:41.932Z,96962.13
2018-04-09T01:38:09.486Z,96965.19
2018-04-09T01:40:37.061Z,96957.75
2018-04-09T01:43:04.619Z,96952.39
2018-04-09T01:45:32.233Z,96950.72
2018-04-09T01:47:59.753Z,96939.22
2018-04-09T01:50:27.281Z,96934.48
2018-04-09T01:52:54.894Z,96934.04
2018-04-09T01:55:22.429Z,96931.62
2018-04-09T01:57:50.140Z,96937.73
2018-04-09T02:00:17.643Z,96935.55
2018-04-09T02:02:45.218Z,96932.55
2018-04-09T02:05:12.840Z,96930.32
2018-04-09T02:07:40.453Z,96929.70
2018-04-09T02:10:08.183Z,96929.02
2018-04-09T02:12:35.729Z,96927.17
2018-04-09T02:15:03.309Z,96929.92
2018-04-09T02:17:30.818Z,96928.54
2018-04-09T02:19:58.365Z,96924.09
2018-04-09T02:22:25.868Z,96927.86
2018-04-09T02:24:53.396Z,96924.34
2018-04-09T02:27:20.969Z,96926.03
2018-04-09T02:29:48.560Z,96919.94
2018-04-09T02:32:16.318Z,96921.14
2018-04-09T02:34:43.939Z,96918.14
2018-04-09T02:37:11.696Z,96915.99
2018-04-09T02:39:39.265Z,96916.09
2018-04-09T02:42:06.780Z,96915.33
2018-04-09T02:44:34.345Z,96922.53
2018-04-09T02:47:01.909Z,96922.90
2018-04-09T02:49:29.524Z,96913.94
2018-04-09T02:51:57.046Z,96904.02
2018-04-09T02:54:24.549Z,96896.89
2018-04-09T02:56:52.251Z,96894.61
2018-04-09T02:59:19.931Z,96898.53
2018-04-09T03:01:47.524Z,96893.58
2018-04-09T03:04:15.227Z,96895.64
2018-04-09T03:06:43.759Z,96897.91
2018-04-09T03:09:11.259Z,96900.27
2018-04-09T03:11:38.883Z,96901.84
2018-04-09T03:14:06.399Z,96896.98
2018-04-09T03:16:33.971Z,96891.78
2018-04-09T03:19:01.481Z,96894.17
2018-04-09T03:21:29.004Z,96905.50
2018-04-09T03:23:56.627Z,96900.14
2018-04-09T03:26:24.581Z,96896.81
2018-04-09T03:28:52.201Z,96897.77
2018-04-09T03:31:19.828Z,96898.69
2018-04-09T03:33:47.398Z,96895.53
2018-04-09T03:36:14.930Z,96889.60
2018-04-09T03:38:42.435Z,96884.59
2018-04-09T03:41:10.159Z,96894.83
2018-04-09T03:43:37.834Z,96897.89
2018-04-09T03:46:05.604Z,96892.20
2018-04-09T03:48:33.188Z,96890.45
2018-04-09T03:51:00.703Z,96889.61
2018-04-09T03:53:28.441Z,96883.84
2018-04-09T03:55:55.974Z,96886.11
2018-04-09T03:58:23.525Z,96883.30
2018-04-09T04:00:51.085Z,96882.48
2018-04-09T04:03:18.630Z,96883.59
2018-04-09T04:05:46.130Z,96875.47
2018-04-09T04:08:14.074Z,96871.13
2018-04-09T04:10:41.597Z,96876.80
2018-04-09T04:13:09.244Z,96871.39
2018-04-09T04:15:48.829Z,96872.77
2018-04-09T04:18:28.162Z,96871.05
2018-04-09T04:21:07.536Z,96868.08
2018-04-09T04:23:35.882Z,96868.64
2018-04-09T04:26:04.095Z,96865.83
2018-04-09T04:28:31.831Z,96867.52
2018-04-09T04:30:59.446Z,96872.56
2018-04-09T04:33:27.074Z,96879.62
2018-04-09T04:35:54.699Z,96876.20
2018-04-09T04:38:22.234Z,96877.48
2018-04-09T04:40:49.775Z,96882.63
2018-04-09T04:43:17.371Z,96883.03
2018-04-09T04:45:44.899Z,96904.98
2018-04-09T04:48:12.537Z,96897.02
2018-04-09T04:50:40.029Z,96901.67
2018-04-09T04:53:07.614Z,96904.45
2018-04-09T04:55:35.201Z,96912.48
2018-04-09T04:58:02.779Z,96917.54
2018-04-09T05:00:30.314Z,96912.05
2018-04-09T05:02:57.830Z,96908.38
2018-04-09T05:05:25.403Z,96896.34
2018-04-09T05:07:52.937Z,96893.55
2018-04-09T05:10:20.804Z,96897.20
2018-04-09T05:12:48.334Z,96899.60
2018-04-09T05:15:15.908Z,96904.38
2018-04-09T05:17:43.515Z,96897.75
2018-04-09T05:20:11.044Z,96907.69
2018-04-09T05:22:38.679Z,96907.41
2018-04-09T05:25:06.217Z,96898.86
2018-04-09T05:27:33.877Z,96913.27
2018-04-09T05:30:01.406Z,96917.47
2018-04-09T05:32:29.019Z,96928.78
2018-04-09T05:34:56.579Z,96928.00
2018-04-09T05:37:24.220Z,96938.91
2018-04-09T05:39:51.824Z,96935.02
2018-04-09T05:42:19.343Z,96931.65
2018-04-09T05:44:46.896Z,96929.24
2018-04-09T05:47:14.485Z,96919.27
2018-04-09T05:49:42.054Z,96913.90
2018-04-09T05:52:09.646Z,96921.39
2018-04-09T05:54:37.200Z,96922.31
2018-04-09T05:57:05.101Z,96922.92
2018-04-09T05:59:32.745Z,96919.14
2018-04-09T06:02:00.266Z,96909.84
2018-04-09T06:04:27.870Z,96913.58
2018-04-09T06:06:55.506Z,96910.97
2018-04-09T06:09:23.029Z,96909.80
2018-04-09T06:11:50.535Z,96905.70
2018-04-09T06:14:18.114Z,96903.72
2018-04-09T06:16:45.649Z,96919.05
2018-04-09T06:19:13.229Z,96917.61
2018-04-09T06:21:41.032Z,96921.91
2018-04-09T06:24:08.639Z,96916.03
2018-04-09T06:26:36.250Z,96915.41
2018-04-09T06:29:04.201Z,96916.83
2018-04-09T06:31:31.904Z,96912.63
2018-04-09T06:33:59.444Z,96917.52
2018-04-09T06:36:27.001Z,96907.14
2018-04-09T06:38:54.621Z,96913.75
2018-04-09T06:41:22.215Z,96913.70
2018-04-09T06:43:49.841Z,96907.96
2018-04-09T06:46:17.421Z,96915.58
2018-04-09T06:48:44.955Z,96915.92
2018-04-09T06:51:12.560Z,96912.05
2018-04-09T06:53:40.101Z,96912.86
2018-04-09T06:56:07.621Z,96920.07
2018-04-09T06:58:35.164Z,96913.42
2018-04-09T07:01:02.895Z,96898.82
2018-04-09T07:03:30.414Z,96904.59
2018-04-09T07:05:57.941Z,96905.33
2018-04-09T07:08:25.494Z,96904.44
2018-04-09T07:10:54.003Z,96882.48
2018-04-09T07:13:21.511Z,96882.42
2018-04-09T07:15:49.251Z,96876.51
2018-04-09T07:18:16.815Z,96880.60
2018-04-09T07:20:44.353Z,96874.54
2018-04-09T07:23:11.946Z,96851.38
2018-04-09T07:25:39.624Z,96838.45
2018-04-09T07:28:07.210Z,96837.40
2018-04-09T07:30:34.825Z,96842.31
2018-04-09T07:33:02.365Z,96849.41
2018-04-09T07:35:30.431Z,96847.63
2018-04-09T07:37:57.952Z,96852.13
2018-04-09T07:40:25.603Z,96858.47
2018-04-09T07:42:53.226Z,96864.78
2018-04-09T07:45:20.816Z,96869.25
2018-04-09T07:47:48.419Z,96875.61
2018-04-09T07:50:15.978Z,96880.05
2018-04-09T07:52:43.552Z,96876.37
2018-04-09T07:55:11.141Z,96874.56
2018-04-09T07:57:38.684Z,96872.41
2018-04-09T08:00:06.251Z,96868.67
2018-04-09T08:02:33.828Z,96864.36
2018-04-09T08:05:01.404Z,96870.80
2018-04-09T08:07:29.030Z,96875.30
2018-04-09T08:09:56.641Z,96871.13
2018-04-09T08:12:24.201Z,96870.66
2018-04-09T08:14:51.740Z,96876.91
2018-04-09T08:17:19.361Z,96876.07
2018-04-09T08:19:46.985Z,96885.79
2018-04-09T08:22:14.532Z,96869.47
2018-04-09T08:24:42.077Z,96869.28
2018-04-09T08:27:09.616Z,96865.88
2018-04-09T08:29:37.140Z,96875.63
2018-04-09T08:32:04.875Z,96872.83
2018-04-09T08:34:32.495Z,96879.45
2018-04-09T08:37:00.026Z,96874.23
2018-04-09T08:39:27.616Z,96875.84
2018-04-09T08:41:55.224Z,96878.44
2018-04-09T08:44:22.790Z,96885.16
2018-04-09T08:46:50.336Z,96875.45
2018-04-09T08:49:17.901Z,96865.67
2018-04-09T08:51:45.501Z,96865.48
2018-04-09T08:54:13.134Z,96861.41
2018-04-09T08:56:40.745Z,96857.66
2018-04-09T08:59:08.356Z,96851.11
2018-04-09T09:01:35.918Z,96853.38
2018-04-09T09:04:03.487Z,96853.84
2018-04-09T09:06:31.112Z,96857.00
2018-04-09T09:08:58.654Z,96849.80
2018-04-09T09:11:26.246Z,96847.73
2018-04-09T09:13:53.797Z,96854.20
2018-04-09T09:16:21.334Z,96856.94
2018-04-09T09:18:49.030Z,96852.47
2018-04-09T09:21:16.721Z,96849.88
2018-04-09T09:23:44.371Z,96841.59
2018-04-09T09:26:11.974Z,96846.43
2018-04-09T09:28:39.654Z,96843.29
2018-04-09T09:31:07.191Z,96853.27
2018-04-09T09:33:34.777Z,96864.25
2018-04-09T09:36:02.332Z,96865.81
2018-04-09T09:38:29.905Z,96853.83
2018-04-09T09:40:57.510Z,96850.66
2018-04-09T09:43:25.119Z,96852.67
2018-04-09T09:45:52.785Z,96848.40
2018-04-09T09:48:20.305Z,96846.33
2018-04-09T09:50:47.820Z,96837.83
2018-04-09T09:53:15.570Z,96843.56
2018-04-09T09:55:43.231Z,96831.34
2018-04-09T09:58:10.776Z,96827.91
2018-04-09T10:00:44.158Z,96818.08
2018-04-09T10:03:11.725Z,96826.71
2018-04-09T10:05:48.055Z,96822.80
2018-04-09T10:08:16.196Z,96823.69
2018-04-09T10:10:43.742Z,96827.91
2018-04-09T10:13:11.275Z,96823.36
2018-04-09T10:15:39.387Z,96825.94
2018-04-09T10:18:06.995Z,96831.20
2018-04-09T10:20:34.576Z,96833.38
2018-04-09T10:23:02.172Z,96841.45
2018-04-09T10:25:30.044Z,96837.47
2018-04-09T10:27:57.578Z,96838.84
2018-04-09T10:30:25.291Z,96843.95
2018-04-09T10:32:53.057Z,96841.94
2018-04-09T10:35:20.616Z,96838.05
2018-04-09T10:37:48.230Z,96833.50
2018-04-09T10:40:15.754Z,96830.61
2018-04-09T10:42:43.367Z,96825.83
2018-04-09T10:45:10.935Z,96833.48
2018-04-09T10:47:38.527Z,96828.80
2018-04-09T10:50:06.086Z,96825.23
2018-04-09T10:52:34.120Z,96829.98
2018-04-09T10:55:01.736Z,96833.98
2018-04-09T10:57:29.277Z,96828.04
2018-04-09T10:59:58.687Z,96828.91
2018-04-09T11:02:26.476Z,96825.64
2018-04-09T11:04:55.021Z,96830.23
2018-04-09T11:07:22.532Z,96830.59
2018-04-09T11:09:50.155Z,96832.09
2018-04-09T11:12:18.912Z,96828.17
2018-04-09T11:14:46.476Z,96822.11
2018-04-09T11:17:14.022Z,96829.52
2018-04-09T11:19:41.718Z,96827.00
2018-04-09T11:22:09.272Z,96822.73
2018-04-09T11:24:36.863Z,96821.55
2018-04-09T11:27:04.443Z,96815.58
2018-04-09T11:29:32.018Z,96818.03
2018-04-09T11:31:59.628Z,96822.34
2018-04-09T11:34:27.212Z,96816.48
2018-04-09T11:36:54.798Z,96816.03
2018-04-09T11:39:22.336Z,96807.39
2018-04-09T11:41:49.941Z,96806.94
2018-04-09T11:44:17.502Z,96805.41
2018-04-09T11:46:45.091Z,96800.11
2018-04-09T11:49:12.756Z,96800.55
2018-04-09T11:51:40.528Z,96796.66
2018-04-09T11:54:08.042Z,96799.87
2018-04-09T11:56:35.599Z,96797.50
2018-04-09T11:59:03.111Z,96789.88
2018-04-09T12:01:30.780Z,96792.09
2018-04-09T12:03:58.370Z,96790.63
2018-04-09T12:06:25.894Z,96784.68
2018-04-09T12:08:53.461Z,96783.42
2018-04-09T12:11:20.981Z,96779.83
2018-04-09T12:13:48.549Z,96782.00
2018-04-09T12:16:16.069Z,96778.14
2018-04-09T12:18:43.581Z,96776.28
2018-04-09T12:21:11.207Z,96773.45
2018-04-09T12:23:38.846Z,96767.97
2018-04-09T12:26:06.375Z,96762.86
2018-04-09T12:28:34.001Z,96765.02
2018-04-09T12:31:01.541Z,96763.15
2018-04-09T12:33:30.008Z,96762.72
2018-04-09T12:35:57.564Z,96762.69
2018-04-09T12:38:25.106Z,96760.09
2018-04-09T12:40:52.643Z,96752.59
2018-04-09T12:43:20.356Z,96754.22
2018-04-09T12:45:48.071Z,96754.95
2018-04-09T12:48:15.656Z,96756.41
2018-04-09T12:50:43.184Z,96758.43
2018-04-09T12:53:10.706Z,96761.73
2018-04-09T12:55:38.304Z,96751.36
2018-04-09T12:58:05.821Z,96753.91
2018-04-09T13:00:33.425Z,96743.52
2018-04-09T13:03:01.001Z,96742.09
2018-04-09T13:05:28.521Z,96747.98
2018-04-09T13:07:56.055Z,96743.70
2018-04-09T13:10:23.701Z,96743.91
2018-04-09T13:12:51.282Z,96734.78
2018-04-09T13:15:18.998Z,96730.23
2018-04-09T13:17:46.571Z,96726.72
2018-04-09T13:20:14.283Z,96727.56
2018-04-09T13:22:42.492Z,96728.59
2018-04-09T13:25:10.023Z,96731.19
2018-04-09T13:27:37.632Z,96732.31
2018-04-09T13:30:05.197Z,96725.59
2018-04-09T13:32:32.847Z,96721.58
2018-04-09T13:35:00.461Z,96720.41
2018-04-09T13:37:27.982Z,96724.88
2018-04-09T13:39:55.640Z,96721.39
2018-04-09T13:42:23.169Z,96718.98
2018-04-09T13:44:50.721Z,96717.35
2018-04-09T13:47:18.246Z,96710.16
2018-04-09T13:49:45.788Z,96699.94
2018-04-09T13:52:13.320Z,96704.32
2018-04-09T13:54:41.007Z,96705.29
2018-04-09T13:57:08.586Z,96698.25
2018-04-09T13:59:36.227Z,96705.11
2018-04-09T14:02:03.982Z,96694.70
2018-04-09T14:04:31.512Z,96686.94
2018-04-09T14:06:59.559Z,96695.58
2018-04-09T14:09:27.212Z,96696.80
2018-04-09T14:11:54.750Z,96688.95
2018-04-09T14:14:22.401Z,96696.86
2018-04-09T14:16:49.958Z,96685.56
2018-04-09T14:19:18.366Z,96690.19
2018-04-09T14:21:46.103Z,96690.19
2018-04-09T14:24:13.744Z,96684.52
2018-04-09T14:26:41.290Z,96680.53
2018-04-09T14:29:08.979Z,96685.53
2018-04-09T14:31:36.516Z,96675.55
2018-04-09T14:34:04.045Z,96674.94
2018-04-09T14:36:31.869Z,96679.03
2018-04-09T14:38:59.663Z,96679.72
2018-04-09T14:41:27.289Z,96677.75
2018-04-09T14:43:54.810Z,96675.39
2018-04-09T14:46:22.701Z,96675.52
2018-04-09T14:48:50.418Z,96670.11
2018-04-09T14:51:18.021Z,96666.76
2018-04-09T14:53:45.670Z,96662.39
2018-04-09T14:56:13.196Z,96656.78
2018-04-09T14:58:40.750Z,96654.14
2018-04-09T15:01:08.369Z,96649.82
2018-04-09T15:03:35.914Z,96654.98
2018-04-09T15:06:03.534Z,96647.42
2018-04-09T15:08:31.169Z,96645.86
2018-04-09T15:10:58.800Z,96653.64
2018-04-09T15:13:26.352Z,96650.17
2018-04-09T15:15:54.011Z,96646.72
2018-04-09T15:18:21.571Z,96655.29
2018-04-09T15:20:49.132Z,96655.80
2018-04-09T15:23:16.704Z,96652.96
2018-04-09T15:25:44.253Z,96653.98
2018-04-09T15:28:11.922Z,96654.41
2018-04-09T15:30:40.454Z,96658.75
2018-04-09T15:33:08.183Z,96656.12
2018-04-09T15:35:35.734Z,96649.30
2018-04-09T15:38:03.392Z,96647.64
2018-04-09T15:40:30.929Z,96649.63
2018-04-09T15:42:58.597Z,96647.05
2018-04-09T15:45:26.359Z,96639.56
2018-04-09T15:47:53.920Z,96638.05
2018-04-09T15:50:21.474Z,96637.97
2018-04-09T15:52:49.160Z,96639.04
2018-04-09T15:55:16.725Z,96640.48
2018-04-09T15:57:44.255Z,96643.66
2018-04-09T16:00:11.890Z,96647.75
2018-04-09T16:02:39.694Z,96649.34
2018-04-09T16:05:07.249Z,96648.84
2018-04-09T16:07:39.664Z,96641.06
2018-04-09T16:10:07.374Z,96643.23
2018-04-09T16:12:35.050Z,96645.38
2018-04-09T16:15:02.585Z,96643.19
2018-04-09T16:17:30.115Z,96638.25
2018-04-09T16:19:57.830Z,96636.81
2018-04-09T16:22:25.369Z,96641.00
2018-04-09T16:24:52.963Z,96640.73
2018-04-09T16:27:20.556Z,96634.14
2018-04-09T16:29:48.156Z,96630.95
2018-04-09T16:32:15.785Z,96623.89
2018-04-09T16:34:43.405Z,96630.64
2018-04-09T16:37:10.947Z,96635.78
2018-04-09T16:39:38.560Z,96635.56
2018-04-09T16:42:06.108Z,96638.65
2018-04-09T16:44:33.759Z,96635.91
2018-04-09T16:47:01.366Z,96644.67
2018-04-09T16:49:28.996Z,96641.27
2018-04-09T16:51:56.609Z,96648.95
2018-04-09T16:54:24.215Z,96655.16
2018-04-09T16:56:51.790Z,96658.34
2018-04-09T16:59:19.527Z,96660.14
2018-04-09T17:01:47.079Z,96662.20
2018-04-09T17:04:14.631Z,96666.53
2018-04-09T17:06:42.166Z,96670.08
2018-04-09T17:09:09.698Z,96676.19
2018-04-09T17:11:37.271Z,96674.31
2018-04-09T17:14:04.987Z,96673.87
2018-04-09T17:16:32.608Z,96674.29
2018-04-09T17:19:00.215Z,96674.86
2018-04-09T17:21:27.806Z,96675.56
2018-04-09T17:23:55.421Z,96668.44
2018-04-09T17:26:23.058Z,96667.81
2018-04-09T17:28:50.689Z,96682.22
2018-04-09T17:31:18.271Z,96672.88
2018-04-09T17:33:46.305Z,96675.63
2018-04-09T17:36:13.875Z,96675.80
2018-04-09T17:38:41.476Z,96681.27
2018-04-09T17:41:09.212Z,96682.92
2018-04-09T17:43:36.901Z,96682.92
2018-04-09T17:46:04.522Z,96679.50
2018-04-09T17:48:32.151Z,96684.07
2018-04-09T17:50:59.742Z,96681.82
2018-04-09T17:53:27.326Z,96686.65
2018-04-09T17:55:55.121Z,96695.14
2018-04-09T17:58:22.830Z,96691.34
2018-04-09T18:00:50.454Z,96695.09
2018-04-09T18:03:18.492Z,96695.19
2018-04-09T18:05:46.094Z,96700.45
2018-04-09T18:08:14.005Z,96707.28
2018-04-09T18:10:41.530Z,96710.61
2018-04-09T18:13:09.396Z,96710.52
2018-04-09T18:15:36.989Z,96712.92
2018-04-09T18:18:04.617Z,96722.88
2018-04-09T18:20:32.247Z,96718.64
2018-04-09T18:22:59.927Z,96718.27
2018-04-09T18:25:27.547Z,96722.02
2018-04-09T18:27:55.090Z,96720.06
2018-04-09T18:30:22.679Z,96721.28
2018-04-09T18:32:50.322Z,96722.23
2018-04-09T18:35:17.992Z,96722.34
2018-04-09T18:37:45.933Z,96726.13
2018-04-09T18:40:13.498Z,96728.17
2018-04-09T18:42:41.030Z,96731.87
2018-04-09T18:45:08.728Z,96730.05
2018-04-09T18:47:36.386Z,96733.50
2018-04-09T18:50:04.170Z,96735.24
2018-04-09T18:52:31.985Z,96743.30
2018-04-09T18:54:59.955Z,96749.20
2018-04-09T18:57:27.913Z,96754.74
2018-04-09T18:59:55.678Z,96765.02
2018-04-09T19:02:23.270Z,96760.98
2018-04-09T19:04:51.077Z,96763.98
2018-04-09T19:07:18.832Z,96762.79
2018-04-09T19:09:46.442Z,96769.52
2018-04-09T19:12:14.236Z,96764.07
2018-04-09T19:14:42.027Z,96766.87
2018-04-09T19:17:09.692Z,96760.66
2018-04-09T19:19:37.426Z,96766.80
2018-04-09T19:22:05.100Z,96770.96
2018-04-09T19:24:33.006Z,96771.95
2018-04-09T19:27:00.528Z,96771.04
2018-04-09T19:29:28.210Z,96774.34
2018-04-09T19:31:55.732Z,96770.23
2018-04-09T19:34:23.572Z,96769.33
2018-04-09T19:36:56.876Z,96770.63
2018-04-09T19:39:30.261Z,96770.97
2018-04-09T19:41:58.002Z,96771.27
2018-04-09T19:44:25.753Z,96766.23
2018-04-09T19:46:53.482Z,96768.80
2018-04-09T19:49:21.378Z,96771.98
2018-04-09T19:51:49.018Z,96767.42
2018-04-09T19:54:16.698Z,96770.53
2018-04-09T19:56:44.675Z,96771.97
2018-04-09T19:59:12.588Z,96769.05
2018-04-09T20:01:40.229Z,96782.34
2018-04-09T20:04:08.122Z,96776.34
2018-04-09T20:06:36.228Z,96782.80
2018-04-09T20:09:03.928Z,96787.06
2018-04-09T20:11:31.598Z,96791.39
2018-04-09T20:13:59.189Z,96788.88
2018-04-09T20:16:26.851Z,96792.64
2018-04-09T20:18:54.596Z,96791.70
2018-04-09T20:21:22.238Z,96789.12
2018-04-09T20:23:49.817Z,96788.39
2018-04-09T20:26:17.365Z,96791.09
2018-04-09T20:28:44.918Z,96787.13
2018-04-09T20:31:12.461Z,96785.59
2018-04-09T20:33:40.114Z,96785.31
2018-04-09T20:36:07.746Z,96789.44
2018-04-09T20:38:35.436Z,96793.42
2018-04-09T20:41:03.097Z,96791.53
2018-04-09T20:43:30.867Z,96791.03
2018-04-09T20:45:58.574Z,96795.44
2018-04-09T20:48:26.153Z,96788.36
2018-04-09T20:50:53.739Z,96797.75
2018-04-09T20:53:21.648Z,96791.30
2018-04-09T20:55:49.253Z,96789.95
2018-04-09T20:58:16.923Z,96791.68
2018-04-09T21:00:45.472Z,96797.02
2018-04-09T21:03:13.232Z,96796.77
2018-04-09T21:05:41.186Z,96792.73
2018-04-09T21:08:08.869Z,96783.64
2018-04-09T21:10:36.436Z,96788.64
2018-04-09T21:13:04.159Z,96783.17
2018-04-09T21:15:31.818Z,96782.80
2018-04-09T21:17:59.511Z,96783.48
2018-04-09T21:20:27.367Z,96776.41
2018-04-09T21:22:54.939Z,96779.88
2018-04-09T21:25:22.693Z,96780.52
2018-04-09T21:27:50.214Z,96781.80
2018-04-09T21:30:17.834Z,96775.64
2018-04-09T21:32:45.441Z,96784.06
2018-04-09T21:35:13.169Z,96781.86
2018-04-09T21:37:41.587Z,96777.35
2018-04-09T21:40:09.185Z,96769.92
2018-04-09T21:42:36.811Z,96773.75
2018-04-09T21:45:04.356Z,96778.41
2018-04-09T21:47:32.143Z,96774.02
2018-04-09T21:49:59.744Z,96773.70
2018-04-09T21:52:27.422Z,96771.56
2018-04-09T21:54:55.775Z,96772.43
2018-04-09T21:57:24.013Z,96774.88
2018-04-09T21:59:51.691Z,96774.86
2018-04-09T22:02:19.217Z,96771.41
2018-04-09T22:04:46.844Z,96771.02
2018-04-09T22:07:14.486Z,96766.66
2018-04-09T22:09:42.096Z,96762.89
2018-04-09T22:12:09.847Z,96770.55
2018-04-09T22:14:37.705Z,96768.09
2018-04-09T22:17:06.344Z,96775.33
2018-04-09T22:19:34.076Z,96777.22
2018-04-09T22:22:01.636Z,96784.37
2018-04-09T22:24:29.363Z,96790.60
2018-04-09T22:26:56.950Z,96783.91
2018-04-09T22:29:24.752Z,96786.27
2018-04-09T22:31:52.520Z,96788.10
2018-04-09T22:34:20.287Z,96794.72
2018-04-09T22:36:47.898Z,96793.08
2018-04-09T22:39:15.451Z,96794.18
2018-04-09T22:41:43.006Z,96791.07
2018-04-09T22:44:10.721Z,96789.89
2018-04-09T22:46:38.643Z,96791.52
2018-04-09T22:49:06.416Z,96794.37
2018-04-09T22:51:34.066Z,96793.85
2018-04-09T22:54:01.665Z,96791.38
2018-04-09T22:56:29.402Z,96794.78
2018-04-09T22:58:57.156Z,96792.71
2018-04-09T23:01:24.681Z,96793.97
2018-04-09T23:03:52.423Z,96796.83
2018-04-09T23:06:20.597Z,96803.83
2018-04-09T23:08:48.366Z,96808.64
2018-04-09T23:11:15.930Z,96810.89
2018-04-09T23:13:43.681Z,96817.67
2018-04-09T23:16:11.308Z,96811.36
2018-04-09T23:18:39.053Z,96808.84
2018-04-09T23:21:06.918Z,96815.17
2018-04-09T23:23:34.682Z,96818.48
2018-04-09T23:26:02.446Z,96811.03
2018-04-09T23:28:30.156Z,96814.48
2018-04-09T23:30:58.059Z,96821.81
2018-04-09T23:33:25.657Z,96821.00
2018-04-09T23:35:53.407Z,96821.88
2018-04-09T23:38:21.151Z,96822.58
2018-04-09T23:40:48.683Z,96817.47
2018-04-09T23:43:16.275Z,96811.59
2018-04-09T23:45:44.132Z,96812.14
2018-04-09T23:48:12.218Z,96807.21
2018-04-09T23:50:39.917Z,96802.33
2018-04-09T23:53:07.608Z,96798.00
2018-04-09T23:55:35.398Z,96801.15
2018-04-09T23:58:03.135Z,96801.59
